Cleveland, Ohio
Traffic Map
Current Weather Conditions
Cleveland, Ohio
Broken Clouds
Broken Clouds
72°
Feels Like: 72°
Wind Chill: 72° Ceiling: 5000
Heat Index: 72° Visibility: 10mi
Dew Point: 68° Wind: 9mph
Humidity: 87% Direction: 160° (SSE)
Pressure: 29.97in Gusts: 0mph
Raw Report DataKBKL 011053Z 16008KT 10SM SCT032 BKN050 22/20 A2997 RMK AO2 SLP143 T02220200
Traffic Incident Summary
Active as of:
Severity:
Category:
InformationThere was an issue retrieving the traffic information for this location. Please try a different location or try again shortly.
Advertisements
Track Severe Weather on mobile